createdAt,value
2023-03-11T00:28:56.472Z,95.69
2023-03-11T00:58:56.762Z,95.73
2023-03-11T01:28:56.310Z,96.32
2023-03-11T01:58:56.707Z,96.38
2023-03-11T02:28:56.425Z,96.88
2023-03-11T02:58:56.349Z,97.21
2023-03-11T03:28:56.233Z,97.13
2023-03-11T03:58:58.837Z,97.7
2023-03-11T04:28:56.322Z,98.53
2023-03-11T04:58:56.284Z,98.82
2023-03-11T05:28:56.277Z,99.21
2023-03-11T05:58:56.036Z,99.68
2023-03-11T06:28:56.112Z,99.93
2023-03-11T06:58:56.281Z,100.0
2023-03-11T07:28:55.951Z,99.99
2023-03-11T07:58:56.404Z,99.08
2023-03-11T08:28:55.981Z,98.11
2023-03-11T08:58:55.959Z,95.24
2023-03-11T09:28:55.888Z,94.95
2023-03-11T09:58:56.630Z,95.76
2023-03-11T10:28:55.927Z,94.8
2023-03-11T10:58:56.396Z,94.39
2023-03-11T11:28:58.214Z,92.28
2023-03-11T11:58:55.724Z,92.81
2023-03-11T12:28:55.676Z,92.85
2023-03-11T12:58:56.268Z,90.01
2023-03-11T13:28:55.454Z,93.21
2023-03-11T13:58:56.674Z,92.36
2023-03-11T14:28:55.514Z,89.11
2023-03-11T14:59:05.134Z,89.51
2023-03-11T15:28:55.575Z,90.12
2023-03-11T15:58:55.911Z,89.96
2023-03-11T16:28:55.508Z,89.56
2023-03-11T16:58:55.568Z,89.98
2023-03-11T17:28:55.472Z,92.25
2023-03-11T17:58:55.293Z,93.38
2023-03-11T18:28:55.544Z,95.38
2023-03-11T18:58:55.886Z,95.22
2023-03-11T19:58:55.719Z,94.83
2023-03-11T19:58:56.150Z,94.9
2023-03-11T20:28:56.324Z,95.04
2023-03-11T20:58:55.488Z,95.57
2023-03-11T21:28:55.733Z,96.68
2023-03-11T21:58:55.179Z,97.46
2023-03-11T22:28:55.146Z,98.44
2023-03-11T22:58:55.045Z,98.68
2023-03-11T23:28:55.250Z,99.51
2023-03-11T23:58:54.895Z,99.5
